sensor_id;sensor_type;location;lat;lon;timestamp;pressure;altitude;pressure_sealevel;temperature;humidity
30724;BME280;17473;52.286;20.930;2022-10-16T00:01:38;100382.53;;;14.99;77.92
30724;BME280;17473;52.286;20.930;2022-10-16T00:04:05;100380.72;;;14.98;77.84
30724;BME280;17473;52.286;20.930;2022-10-16T00:06:32;100384.41;;;15.06;77.81
30724;BME280;17473;52.286;20.930;2022-10-16T00:08:59;100378.25;;;15.09;77.60
30724;BME280;17473;52.286;20.930;2022-10-16T00:11:31;100376.41;;;15.05;78.12
30724;BME280;17473;52.286;20.930;2022-10-16T00:14:07;100370.34;;;15.13;77.92
30724;BME280;17473;52.286;20.930;2022-10-16T00:16:34;100371.97;;;15.03;78.38
30724;BME280;17473;52.286;20.930;2022-10-16T00:19:02;100374.59;;;15.02;78.67
30724;BME280;17473;52.286;20.930;2022-10-16T00:21:31;100380.94;;;15.10;78.52
30724;BME280;17473;52.286;20.930;2022-10-16T00:24:05;100377.28;;;15.03;78.81
30724;BME280;17473;52.286;20.930;2022-10-16T00:26:34;100373.81;;;15.09;78.98
30724;BME280;17473;52.286;20.930;2022-10-16T00:29:02;100367.91;;;15.30;78.15
30724;BME280;17473;52.286;20.930;2022-10-16T00:31:29;100374.03;;;15.25;78.07
30724;BME280;17473;52.286;20.930;2022-10-16T00:33:57;100377.41;;;15.11;78.93
30724;BME280;17473;52.286;20.930;2022-10-16T00:36:25;100375.69;;;15.15;78.96
30724;BME280;17473;52.286;20.930;2022-10-16T00:38:54;100378.56;;;15.30;78.35
30724;BME280;17473;52.286;20.930;2022-10-16T00:41:24;100386.66;;;15.38;78.02
30724;BME280;17473;52.286;20.930;2022-10-16T00:44:40;100377.81;;;15.41;77.60
30724;BME280;17473;52.286;20.930;2022-10-16T00:46:50;100376.75;;;15.28;78.36
30724;BME280;17473;52.286;20.930;2022-10-16T00:49:19;100383.22;;;15.45;77.83
30724;BME280;17473;52.286;20.930;2022-10-16T00:51:52;100389.50;;;15.51;77.36
30724;BME280;17473;52.286;20.930;2022-10-16T00:54:29;100398.38;;;15.51;77.41
30724;BME280;17473;52.286;20.930;2022-10-16T00:57:00;100390.72;;;15.13;78.76
30724;BME280;17473;52.286;20.930;2022-10-16T00:59:34;100374.88;;;15.19;78.86
30724;BME280;17473;52.286;20.930;2022-10-16T01:02:05;100400.41;;;15.09;79.28
30724;BME280;17473;52.286;20.930;2022-10-16T01:04:39;100404.06;;;15.16;79.15
30724;BME280;17473;52.286;20.930;2022-10-16T01:10:07;100405.66;;;15.06;78.89
30724;BME280;17473;52.286;20.930;2022-10-16T01:15:30;100410.72;;;14.89;79.59
30724;BME280;17473;52.286;20.930;2022-10-16T01:21:03;100405.00;;;15.20;79.67
30724;BME280;17473;52.286;20.930;2022-10-16T01:30:15;100411.75;;;14.97;81.72
30724;BME280;17473;52.286;20.930;2022-10-16T01:35:47;100419.72;;;14.97;82.08
30724;BME280;17473;52.286;20.930;2022-10-16T01:38:23;100407.25;;;14.93;82.12
30724;BME280;17473;52.286;20.930;2022-10-16T01:41:08;100417.91;;;14.95;81.71
30724;BME280;17473;52.286;20.930;2022-10-16T01:44:22;100417.69;;;14.82;82.11
30724;BME280;17473;52.286;20.930;2022-10-16T01:46:53;100418.69;;;14.88;81.75
30724;BME280;17473;52.286;20.930;2022-10-16T01:49:23;100415.19;;;14.90;81.11
30724;BME280;17473;52.286;20.930;2022-10-16T01:51:55;100407.25;;;14.93;80.92
30724;BME280;17473;52.286;20.930;2022-10-16T01:54:28;100407.31;;;14.98;79.51
30724;BME280;17473;52.286;20.930;2022-10-16T01:56:56;100397.28;;;14.78;80.62
30724;BME280;17473;52.286;20.930;2022-10-16T01:59:26;100410.81;;;14.94;80.41
30724;BME280;17473;52.286;20.930;2022-10-16T02:02:00;100412.47;;;14.87;80.48
30724;BME280;17473;52.286;20.930;2022-10-16T02:04:33;100417.88;;;14.93;80.10
30724;BME280;17473;52.286;20.930;2022-10-16T02:07:01;100415.81;;;14.75;80.46
30724;BME280;17473;52.286;20.930;2022-10-16T02:09:30;100414.09;;;14.79;80.59
30724;BME280;17473;52.286;20.930;2022-10-16T02:12:01;100413.16;;;14.74;80.79
30724;BME280;17473;52.286;20.930;2022-10-16T02:14:30;100410.63;;;14.83;80.41
30724;BME280;17473;52.286;20.930;2022-10-16T02:16:57;100410.50;;;14.77;80.85
30724;BME280;17473;52.286;20.930;2022-10-16T02:19:24;100406.59;;;14.56;81.89
30724;BME280;17473;52.286;20.930;2022-10-16T02:21:58;100412.09;;;14.65;81.69
30724;BME280;17473;52.286;20.930;2022-10-16T02:25:04;100402.94;;;14.49;81.93
30724;BME280;17473;52.286;20.930;2022-10-16T02:32:47;100414.44;;;14.50;81.88
30724;BME280;17473;52.286;20.930;2022-10-16T02:35:18;100411.06;;;14.59;81.30
30724;BME280;17473;52.286;20.930;2022-10-16T02:37:47;100421.66;;;14.57;81.65
30724;BME280;17473;52.286;20.930;2022-10-16T02:40:17;100413.81;;;14.65;80.60
30724;BME280;17473;52.286;20.930;2022-10-16T02:42:52;100416.16;;;14.46;81.94
30724;BME280;17473;52.286;20.930;2022-10-16T02:45:20;100419.66;;;14.44;82.21
30724;BME280;17473;52.286;20.930;2022-10-16T02:47:47;100419.66;;;14.44;81.93
30724;BME280;17473;52.286;20.930;2022-10-16T02:50:14;100417.94;;;14.46;82.22
30724;BME280;17473;52.286;20.930;2022-10-16T02:52:42;100423.41;;;14.55;81.94
30724;BME280;17473;52.286;20.930;2022-10-16T02:55:09;100427.13;;;14.65;80.93
30724;BME280;17473;52.286;20.930;2022-10-16T02:57:36;100426.16;;;14.61;81.16
30724;BME280;17473;52.286;20.930;2022-10-16T03:00:06;100427.78;;;14.51;81.71
30724;BME280;17473;52.286;20.930;2022-10-16T03:02:33;100427.84;;;14.56;81.83
30724;BME280;17473;52.286;20.930;2022-10-16T03:05:00;100430.75;;;14.68;81.15
30724;BME280;17473;52.286;20.930;2022-10-16T03:07:27;100434.13;;;14.60;81.18
30724;BME280;17473;52.286;20.930;2022-10-16T03:09:54;100431.31;;;14.53;81.62
30724;BME280;17473;52.286;20.930;2022-10-16T03:12:22;100444.94;;;14.69;81.39
30724;BME280;17473;52.286;20.930;2022-10-16T03:14:49;100444.59;;;14.52;81.70
30724;BME280;17473;52.286;20.930;2022-10-16T03:17:16;100450.16;;;14.66;81.22
30724;BME280;17473;52.286;20.930;2022-10-16T03:19:43;100438.50;;;14.56;81.49
30724;BME280;17473;52.286;20.930;2022-10-16T03:22:10;100447.44;;;14.63;81.28
30724;BME280;17473;52.286;20.930;2022-10-16T03:24:37;100447.16;;;14.47;82.09
30724;BME280;17473;52.286;20.930;2022-10-16T03:27:04;100452.72;;;14.60;81.38
30724;BME280;17473;52.286;20.930;2022-10-16T03:29:31;100452.63;;;14.55;81.43
30724;BME280;17473;52.286;20.930;2022-10-16T03:31:59;100450.69;;;14.48;81.85
30724;BME280;17473;52.286;20.930;2022-10-16T03:34:27;100451.88;;;14.62;81.46
30724;BME280;17473;52.286;20.930;2022-10-16T03:36:54;100449.81;;;14.46;82.29
30724;BME280;17473;52.286;20.930;2022-10-16T03:39:21;100451.34;;;14.33;82.86
30724;BME280;17473;52.286;20.930;2022-10-16T03:41:48;100447.16;;;14.46;82.13
30724;BME280;17473;52.286;20.930;2022-10-16T03:44:15;100449.91;;;14.52;81.89
30724;BME280;17473;52.286;20.930;2022-10-16T03:46:42;100455.81;;;14.35;82.44
30724;BME280;17473;52.286;20.930;2022-10-16T03:49:09;100459.41;;;14.39;82.51
30724;BME280;17473;52.286;20.930;2022-10-16T03:51:36;100456.06;;;14.49;82.15
30724;BME280;17473;52.286;20.930;2022-10-16T03:54:03;100454.28;;;14.48;81.81
30724;BME280;17473;52.286;20.930;2022-10-16T03:56:30;100455.03;;;14.43;82.10
30724;BME280;17473;52.286;20.930;2022-10-16T03:58:57;100460.44;;;14.46;81.93
30724;BME280;17473;52.286;20.930;2022-10-16T04:01:24;100451.44;;;14.39;81.75
30724;BME280;17473;52.286;20.930;2022-10-16T04:03:51;100461.97;;;14.33;82.30
30724;BME280;17473;52.286;20.930;2022-10-16T04:06:18;100456.56;;;14.30;82.19
30724;BME280;17473;52.286;20.930;2022-10-16T04:08:45;100452.88;;;14.21;82.85
30724;BME280;17473;52.286;20.930;2022-10-16T04:11:12;100455.63;;;14.26;82.88
30724;BME280;17473;52.286;20.930;2022-10-16T04:13:39;100456.19;;;14.09;83.37
30724;BME280;17473;52.286;20.930;2022-10-16T04:16:06;100462.19;;;14.01;83.80
30724;BME280;17473;52.286;20.930;2022-10-16T04:18:33;100469.56;;;14.14;83.51
30724;BME280;17473;52.286;20.930;2022-10-16T04:21:06;100459.88;;;14.16;83.46
30724;BME280;17473;52.286;20.930;2022-10-16T04:23:33;100463.19;;;14.06;83.63
30724;BME280;17473;52.286;20.930;2022-10-16T04:26:00;100467.50;;;14.01;84.15
30724;BME280;17473;52.286;20.930;2022-10-16T04:28:28;100465.84;;;14.06;84.23
30724;BME280;17473;52.286;20.930;2022-10-16T04:30:55;100464.78;;;13.98;84.49
30724;BME280;17473;52.286;20.930;2022-10-16T04:33:22;100474.41;;;13.94;84.80
30724;BME280;17473;52.286;20.930;2022-10-16T04:35:57;100469.09;;;13.94;84.44
30724;BME280;17473;52.286;20.930;2022-10-16T04:38:25;100455.56;;;13.80;85.00
30724;BME280;17473;52.286;20.930;2022-10-16T04:40:52;100469.84;;;13.87;85.08
30724;BME280;17473;52.286;20.930;2022-10-16T04:43:20;100477.44;;;14.11;84.23
30724;BME280;17473;52.286;20.930;2022-10-16T04:45:47;100469.94;;;13.91;84.96
30724;BME280;17473;52.286;20.930;2022-10-16T04:48:14;100478.66;;;13.86;85.30
30724;BME280;17473;52.286;20.930;2022-10-16T04:50:41;100481.06;;;13.73;85.95
30724;BME280;17473;52.286;20.930;2022-10-16T04:53:08;100489.16;;;13.80;85.71
30724;BME280;17473;52.286;20.930;2022-10-16T04:55:35;100490.81;;;13.74;86.02
30724;BME280;17473;52.286;20.930;2022-10-16T04:58:02;100474.50;;;13.99;84.87
30724;BME280;17473;52.286;20.930;2022-10-16T05:00:29;100489.56;;;13.98;84.95
30724;BME280;17473;52.286;20.930;2022-10-16T05:02:56;100486.59;;;13.83;85.58
30724;BME280;17473;52.286;20.930;2022-10-16T05:05:26;100486.69;;;13.87;85.31
30724;BME280;17473;52.286;20.930;2022-10-16T05:07:54;100496.56;;;13.95;85.35
30724;BME280;17473;52.286;20.930;2022-10-16T05:10:21;100502.53;;;13.84;85.80
30724;BME280;17473;52.286;20.930;2022-10-16T05:12:48;100519.28;;;13.82;85.75
30724;BME280;17473;52.286;20.930;2022-10-16T05:15:15;100516.44;;;13.74;86.20
30724;BME280;17473;52.286;20.930;2022-10-16T05:17:42;100516.81;;;13.89;85.89
30724;BME280;17473;52.286;20.930;2022-10-16T05:20:11;100513.91;;;13.78;86.12
30724;BME280;17473;52.286;20.930;2022-10-16T05:22:38;100510.63;;;13.90;85.30
30724;BME280;17473;52.286;20.930;2022-10-16T05:25:06;100512.19;;;13.82;86.03
30724;BME280;17473;52.286;20.930;2022-10-16T05:27:33;100508.03;;;13.93;85.30
30724;BME280;17473;52.286;20.930;2022-10-16T05:30:00;100518.84;;;14.01;85.44
30724;BME280;17473;52.286;20.930;2022-10-16T05:32:27;100504.44;;;13.91;85.22
30724;BME280;17473;52.286;20.930;2022-10-16T05:34:54;100510.03;;;14.04;84.75
30724;BME280;17473;52.286;20.930;2022-10-16T05:37:21;100510.91;;;14.04;84.39
30724;BME280;17473;52.286;20.930;2022-10-16T05:39:48;100509.50;;;14.20;83.83
30724;BME280;17473;52.286;20.930;2022-10-16T05:42:15;100512.88;;;14.12;84.10
30724;BME280;17473;52.286;20.930;2022-10-16T05:44:42;100514.88;;;14.23;83.58
30724;BME280;17473;52.286;20.930;2022-10-16T05:47:09;100510.75;;;14.38;82.67
30724;BME280;17473;52.286;20.930;2022-10-16T05:49:37;100521.88;;;14.20;83.90
30724;BME280;17473;52.286;20.930;2022-10-16T05:52:07;100520.22;;;14.25;83.13
30724;BME280;17473;52.286;20.930;2022-10-16T05:54:34;100525.72;;;14.34;83.36
30724;BME280;17473;52.286;20.930;2022-10-16T05:57:01;100535.66;;;14.43;82.48
30724;BME280;17473;52.286;20.930;2022-10-16T05:59:28;100529.88;;;14.21;83.32
30724;BME280;17473;52.286;20.930;2022-10-16T06:01:55;100529.59;;;14.07;83.96
30724;BME280;17473;52.286;20.930;2022-10-16T06:04:22;100540.53;;;14.23;83.87
30724;BME280;17473;52.286;20.930;2022-10-16T06:06:49;100536.06;;;14.20;83.24
30724;BME280;17473;52.286;20.930;2022-10-16T06:09:16;100541.38;;;14.22;83.58
30724;BME280;17473;52.286;20.930;2022-10-16T06:11:43;100546.22;;;14.42;83.01
30724;BME280;17473;52.286;20.930;2022-10-16T06:14:10;100544.75;;;14.56;81.78
30724;BME280;17473;52.286;20.930;2022-10-16T06:16:37;100544.75;;;14.56;81.45
30724;BME280;17473;52.286;20.930;2022-10-16T06:19:05;100548.97;;;14.46;82.12
30724;BME280;17473;52.286;20.930;2022-10-16T06:21:35;100548.38;;;14.60;81.44
30724;BME280;17473;52.286;20.930;2022-10-16T06:24:02;100542.50;;;14.32;82.78
30724;BME280;17473;52.286;20.930;2022-10-16T06:26:30;100543.06;;;14.60;81.90
30724;BME280;17473;52.286;20.930;2022-10-16T06:28:59;100547.09;;;14.83;80.45
30724;BME280;17473;52.286;20.930;2022-10-16T06:31:27;100550.72;;;14.89;80.43
30724;BME280;17473;52.286;20.930;2022-10-16T06:33:57;100556.03;;;14.89;80.32
30724;BME280;17473;52.286;20.930;2022-10-16T06:36:25;100561.03;;;15.19;79.03
30724;BME280;17473;52.286;20.930;2022-10-16T06:38:52;100560.84;;;16.20;74.53
30724;BME280;17473;52.286;20.930;2022-10-16T06:41:22;100558.31;;;18.19;66.42
30724;BME280;17473;52.286;20.930;2022-10-16T06:43:49;100572.97;;;19.36;61.08
30724;BME280;17473;52.286;20.930;2022-10-16T06:46:21;100561.94;;;20.72;56.24
30724;BME280;17473;52.286;20.930;2022-10-16T06:48:48;100561.47;;;21.47;53.46
30724;BME280;17473;52.286;20.930;2022-10-16T06:51:22;100565.16;;;22.30;51.06
30724;BME280;17473;52.286;20.930;2022-10-16T06:53:52;100565.88;;;22.49;50.34
30724;BME280;17473;52.286;20.930;2022-10-16T06:56:31;100567.91;;;23.55;47.66
30724;BME280;17473;52.286;20.930;2022-10-16T06:58:59;100575.25;;;23.98;46.20
30724;BME280;17473;52.286;20.930;2022-10-16T07:01:27;100568.75;;;24.98;44.30
30724;BME280;17473;52.286;20.930;2022-10-16T07:03:54;100568.00;;;22.89;48.06
30724;BME280;17473;52.286;20.930;2022-10-16T07:06:23;100571.69;;;20.97;52.96
30724;BME280;17473;52.286;20.930;2022-10-16T07:08:51;100582.75;;;19.73;57.04
30724;BME280;17473;52.286;20.930;2022-10-16T07:11:23;100587.94;;;18.73;60.45
30724;BME280;17473;52.286;20.930;2022-10-16T07:13:51;100587.88;;;18.53;62.47
30724;BME280;17473;52.286;20.930;2022-10-16T07:16:28;100594.44;;;17.64;65.06
30724;BME280;17473;52.286;20.930;2022-10-16T07:19:00;100595.22;;;17.54;67.06
30724;BME280;17473;52.286;20.930;2022-10-16T07:21:31;100594.09;;;17.26;67.93
30724;BME280;17473;52.286;20.930;2022-10-16T07:24:02;100591.25;;;17.10;69.17
30724;BME280;17473;52.286;20.930;2022-10-16T07:26:33;100593.03;;;17.10;69.06
30724;BME280;17473;52.286;20.930;2022-10-16T07:29:00;100596.31;;;16.85;69.87
30724;BME280;17473;52.286;20.930;2022-10-16T07:31:28;100580.13;;;16.71;70.74
30724;BME280;17473;52.286;20.930;2022-10-16T07:33:55;100578.34;;;16.70;71.05
30724;BME280;17473;52.286;20.930;2022-10-16T07:36:24;100583.78;;;16.81;70.74
30724;BME280;17473;52.286;20.930;2022-10-16T07:38:51;100572.66;;;17.16;69.11
30724;BME280;17473;52.286;20.930;2022-10-16T07:41:24;100569.91;;;18.18;65.86
30724;BME280;17473;52.286;20.930;2022-10-16T07:43:53;100570.25;;;19.14;62.00
30724;BME280;17473;52.286;20.930;2022-10-16T07:46:22;100565.72;;;20.22;58.67
30724;BME280;17473;52.286;20.930;2022-10-16T07:48:50;100582.69;;;20.30;57.00
30724;BME280;17473;52.286;20.930;2022-10-16T07:51:22;100595.25;;;20.05;58.01
30724;BME280;17473;52.286;20.930;2022-10-16T07:53:50;100581.00;;;19.90;58.61
30724;BME280;17473;52.286;20.930;2022-10-16T07:56:20;100589.78;;;20.42;56.98
30724;BME280;17473;52.286;20.930;2022-10-16T07:58:47;100583.59;;;20.20;57.75
30724;BME280;17473;52.286;20.930;2022-10-16T08:01:17;100595.22;;;20.20;57.86
30724;BME280;17473;52.286;20.930;2022-10-16T08:03:47;100595.28;;;19.69;58.84
30724;BME280;17473;52.286;20.930;2022-10-16T08:06:16;100600.63;;;20.06;58.25
30724;BME280;17473;52.286;20.930;2022-10-16T08:08:47;100607.75;;;20.01;58.34
30724;BME280;17473;52.286;20.930;2022-10-16T08:11:14;100613.94;;;20.32;57.44
30724;BME280;17473;52.286;20.930;2022-10-16T08:13:42;100605.75;;;20.76;56.16
30724;BME280;17473;52.286;20.930;2022-10-16T08:16:09;100609.44;;;20.44;57.11
30724;BME280;17473;52.286;20.930;2022-10-16T08:18:39;100607.69;;;20.41;57.77
30724;BME280;17473;52.286;20.930;2022-10-16T08:21:19;100610.25;;;20.66;57.22
30724;BME280;17473;52.286;20.930;2022-10-16T08:23:48;100607.56;;;20.69;56.78
30724;BME280;17473;52.286;20.930;2022-10-16T08:26:22;100600.38;;;20.87;56.58
30724;BME280;17473;52.286;20.930;2022-10-16T08:28:50;100609.31;;;20.83;56.66
30724;BME280;17473;52.286;20.930;2022-10-16T08:31:19;100614.59;;;21.00;56.88
30724;BME280;17473;52.286;20.930;2022-10-16T08:33:46;100624.19;;;21.39;55.57
30724;BME280;17473;52.286;20.930;2022-10-16T08:36:16;100625.41;;;20.90;56.78
30724;BME280;17473;52.286;20.930;2022-10-16T08:38:43;100629.75;;;21.15;56.49
30724;BME280;17473;52.286;20.930;2022-10-16T08:50:02;100624.63;;;20.57;58.09
30724;BME280;17473;52.286;20.930;2022-10-16T08:52:34;100630.56;;;21.24;56.45
30724;BME280;17473;52.286;20.930;2022-10-16T08:55:04;100624.75;;;21.83;55.25
30724;BME280;17473;52.286;20.930;2022-10-16T08:57:31;100629.63;;;22.38;53.53
30724;BME280;17473;52.286;20.930;2022-10-16T09:00:11;100629.75;;;22.27;53.32
30724;BME280;17473;52.286;20.930;2022-10-16T09:03:20;100624.69;;;21.93;54.37
30724;BME280;17473;52.286;20.930;2022-10-16T09:23:15;100631.47;;;23.67;49.49
30724;BME280;17473;52.286;20.930;2022-10-16T09:25:46;100617.84;;;23.20;50.83
30724;BME280;17473;52.286;20.930;2022-10-16T09:28:16;100618.88;;;23.70;49.60
30724;BME280;17473;52.286;20.930;2022-10-16T09:30:45;100613.75;;;23.53;49.97
30724;BME280;17473;52.286;20.930;2022-10-16T09:33:13;100618.63;;;23.29;50.51
30724;BME280;17473;52.286;20.930;2022-10-16T09:35:49;100627.41;;;23.41;50.46
30724;BME280;17473;52.286;20.930;2022-10-16T09:38:33;100621.53;;;23.12;50.88
30724;BME280;17473;52.286;20.930;2022-10-16T09:41:15;100628.13;;;22.88;51.22
30724;BME280;17473;52.286;20.930;2022-10-16T09:43:57;100624.41;;;22.20;52.98
30724;BME280;17473;52.286;20.930;2022-10-16T09:46:34;100623.31;;;22.42;52.47
30724;BME280;17473;52.286;20.930;2022-10-16T09:49:16;100634.91;;;22.48;53.18
30724;BME280;17473;52.286;20.930;2022-10-16T09:51:45;100632.28;;;22.42;52.76
30724;BME280;17473;52.286;20.930;2022-10-16T09:54:19;100631.66;;;22.12;53.80
30724;BME280;17473;52.286;20.930;2022-10-16T09:56:48;100629.59;;;22.42;53.47
30724;BME280;17473;52.286;20.930;2022-10-16T09:59:22;100636.81;;;22.35;53.65
30724;BME280;17473;52.286;20.930;2022-10-16T10:01:54;100633.97;;;22.51;53.07
30724;BME280;17473;52.286;20.930;2022-10-16T10:04:24;100630.31;;;22.57;53.52
30724;BME280;17473;52.286;20.930;2022-10-16T10:06:54;100640.22;;;22.53;53.49
30724;BME280;17473;52.286;20.930;2022-10-16T10:09:42;100632.94;;;22.61;52.68
30724;BME280;17473;52.286;20.930;2022-10-16T10:12:21;100621.50;;;23.14;51.44
30724;BME280;17473;52.286;20.930;2022-10-16T10:14:56;100627.72;;;23.21;51.52
30724;BME280;17473;52.286;20.930;2022-10-16T10:17:28;100627.75;;;22.46;52.65
30724;BME280;17473;52.286;20.930;2022-10-16T10:20:22;100611.38;;;22.67;52.39
30724;BME280;17473;52.286;20.930;2022-10-16T10:22:49;100618.88;;;22.36;53.06
30724;BME280;17473;52.286;20.930;2022-10-16T10:32:02;100609.38;;;22.02;54.77
30724;BME280;17473;52.286;20.930;2022-10-16T10:50:20;100609.75;;;21.61;56.09
30724;BME280;17473;52.286;20.930;2022-10-16T10:53:09;100607.97;;;21.52;56.01
30724;BME280;17473;52.286;20.930;2022-10-16T10:56:18;100608.13;;;21.38;56.30
30724;BME280;17473;52.286;20.930;2022-10-16T11:02:15;100610.78;;;21.38;57.04
30724;BME280;17473;52.286;20.930;2022-10-16T11:08:13;100615.13;;;21.56;56.42
30724;BME280;17473;52.286;20.930;2022-10-16T11:10:56;100610.63;;;21.63;56.14
30724;BME280;17473;52.286;20.930;2022-10-16T11:13:55;100611.44;;;21.72;56.05
30724;BME280;17473;52.286;20.930;2022-10-16T11:16:43;100605.38;;;21.41;56.81
30724;BME280;17473;52.286;20.930;2022-10-16T11:19:25;100609.09;;;21.23;57.06
30724;BME280;17473;52.286;20.930;2022-10-16T11:24:59;100595.75;;;21.14;57.92
30724;BME280;17473;52.286;20.930;2022-10-16T11:27:51;100609.72;;;21.65;56.29
30724;BME280;17473;52.286;20.930;2022-10-16T11:36:25;100619.69;;;21.46;56.78
30724;BME280;17473;52.286;20.930;2022-10-16T11:55:51;100599.06;;;21.48;57.99
30724;BME280;17473;52.286;20.930;2022-10-16T11:58:29;100596.59;;;21.19;58.89
30724;BME280;17473;52.286;20.930;2022-10-16T12:03:52;100598.41;;;21.18;58.70
30724;BME280;17473;52.286;20.930;2022-10-16T12:06:54;100614.38;;;21.37;58.44
30724;BME280;17473;52.286;20.930;2022-10-16T12:09:29;100601.00;;;21.26;58.81
30724;BME280;17473;52.286;20.930;2022-10-16T12:11:56;100609.19;;;21.03;59.21
30724;BME280;17473;52.286;20.930;2022-10-16T12:14:34;100621.75;;;21.02;59.35
30724;BME280;17473;52.286;20.930;2022-10-16T12:23:03;100624.31;;;21.21;58.98
30724;BME280;17473;52.286;20.930;2022-10-16T12:25:39;100616.22;;;21.27;58.87
30724;BME280;17473;52.286;20.930;2022-10-16T12:30:51;100619.72;;;21.40;58.72
30724;BME280;17473;52.286;20.930;2022-10-16T12:33:25;100619.72;;;21.41;58.44
30724;BME280;17473;52.286;20.930;2022-10-16T12:35:53;100626.06;;;21.31;59.01
30724;BME280;17473;52.286;20.930;2022-10-16T12:38:48;100622.56;;;21.18;59.61
30724;BME280;17473;52.286;20.930;2022-10-16T12:41:29;100627.84;;;21.26;58.89
30724;BME280;17473;52.286;20.930;2022-10-16T12:44:00;100634.34;;;20.85;60.10
30724;BME280;17473;52.286;20.930;2022-10-16T12:49:22;100645.97;;;20.88;60.09
30724;BME280;17473;52.286;20.930;2022-10-16T12:51:56;100637.00;;;20.91;59.80
30724;BME280;17473;52.286;20.930;2022-10-16T12:54:35;100632.50;;;20.99;59.29
30724;BME280;17473;52.286;20.930;2022-10-16T13:00:24;100626.34;;;20.75;60.39
30724;BME280;17473;52.286;20.930;2022-10-16T13:03:14;100630.81;;;20.67;60.67
30724;BME280;17473;52.286;20.930;2022-10-16T13:15:11;100642.44;;;20.71;61.38
30724;BME280;17473;52.286;20.930;2022-10-16T13:17:59;100655.88;;;20.58;61.92
30724;BME280;17473;52.286;20.930;2022-10-16T13:23:33;100657.69;;;20.56;61.54
30724;BME280;17473;52.286;20.930;2022-10-16T13:26:11;100657.75;;;20.35;62.70
30724;BME280;17473;52.286;20.930;2022-10-16T13:28:40;100662.19;;;20.37;62.46
30724;BME280;17473;52.286;20.930;2022-10-16T13:31:19;100663.09;;;20.35;63.10
30724;BME280;17473;52.286;20.930;2022-10-16T13:33:51;100658.63;;;20.35;62.97
30724;BME280;17473;52.286;20.930;2022-10-16T13:39:19;100656.00;;;19.96;64.80
30724;BME280;17473;52.286;20.930;2022-10-16T13:44:47;100665.84;;;19.96;65.08
30724;BME280;17473;52.286;20.930;2022-10-16T13:47:24;100664.06;;;20.07;64.96
30724;BME280;17473;52.286;20.930;2022-10-16T13:50:13;100665.78;;;20.30;64.22
30724;BME280;17473;52.286;20.930;2022-10-16T13:52:41;100667.56;;;20.42;63.95
30724;BME280;17473;52.286;20.930;2022-10-16T13:55:17;100661.38;;;20.16;64.82
30724;BME280;17473;52.286;20.930;2022-10-16T13:57:45;100645.28;;;20.06;65.88
30724;BME280;17473;52.286;20.930;2022-10-16T14:02:45;100650.59;;;20.37;65.09
30724;BME280;17473;52.286;20.930;2022-10-16T14:05:17;100648.81;;;20.26;65.20
30724;BME280;17473;52.286;20.930;2022-10-16T14:07:50;100666.72;;;20.13;66.40
30724;BME280;17473;52.286;20.930;2022-10-16T14:10:31;100659.56;;;20.15;66.47
30724;BME280;17473;52.286;20.930;2022-10-16T14:13:07;100654.19;;;20.18;66.18
30724;BME280;17473;52.286;20.930;2022-10-16T14:15:35;100654.22;;;20.20;66.37
30724;BME280;17473;52.286;20.930;2022-10-16T14:18:03;100663.09;;;20.31;65.61
30724;BME280;17473;52.286;20.930;2022-10-16T14:20:33;100663.13;;;20.17;66.78
30724;BME280;17473;52.286;20.930;2022-10-16T14:23:17;100669.41;;;20.18;66.77
30724;BME280;17473;52.286;20.930;2022-10-16T14:25:46;100667.59;;;20.31;66.27
30724;BME280;17473;52.286;20.930;2022-10-16T14:30:54;100681.88;;;20.17;66.94
30724;BME280;17473;52.286;20.930;2022-10-16T14:33:32;100671.16;;;20.25;66.68
30724;BME280;17473;52.286;20.930;2022-10-16T14:38:38;100677.41;;;20.27;66.96
30724;BME280;17473;52.286;20.930;2022-10-16T14:41:06;100678.31;;;20.31;67.00
30724;BME280;17473;52.286;20.930;2022-10-16T14:43:39;100684.53;;;20.36;66.97
30724;BME280;17473;52.286;20.930;2022-10-16T14:46:13;100687.25;;;20.33;66.82
30724;BME280;17473;52.286;20.930;2022-10-16T14:48:47;100686.38;;;20.20;67.43
30724;BME280;17473;52.286;20.930;2022-10-16T14:51:19;100680.13;;;20.01;67.94
30724;BME280;17473;52.286;20.930;2022-10-16T14:53:46;100678.31;;;20.17;67.64
30724;BME280;17473;52.286;20.930;2022-10-16T14:56:19;100685.47;;;20.26;67.24
30724;BME280;17473;52.286;20.930;2022-10-16T14:58:49;100689.94;;;20.11;67.62
30724;BME280;17473;52.286;20.930;2022-10-16T15:01:16;100686.38;;;20.22;67.43
30724;BME280;17473;52.286;20.930;2022-10-16T15:03:44;100687.25;;;20.08;68.11
30724;BME280;17473;52.286;20.930;2022-10-16T15:06:13;100681.00;;;20.00;68.17
30724;BME280;17473;52.286;20.930;2022-10-16T15:08:40;100694.44;;;19.97;68.89
30724;BME280;17473;52.286;20.930;2022-10-16T15:11:17;100696.22;;;19.89;69.16
30724;BME280;17473;52.286;20.930;2022-10-16T15:13:45;100696.19;;;19.95;69.02
30724;BME280;17473;52.286;20.930;2022-10-16T15:16:15;100695.31;;;19.91;69.28
30724;BME280;17473;52.286;20.930;2022-10-16T15:18:43;100698.84;;;19.81;69.56
30724;BME280;17473;52.286;20.930;2022-10-16T15:21:27;100701.53;;;19.79;70.57
30724;BME280;17473;52.286;20.930;2022-10-16T15:23:54;100695.28;;;19.71;70.27
30724;BME280;17473;52.286;20.930;2022-10-16T15:26:27;100704.16;;;19.68;70.71
30724;BME280;17473;52.286;20.930;2022-10-16T15:28:55;100697.94;;;19.62;70.86
30724;BME280;17473;52.286;20.930;2022-10-16T15:31:23;100697.94;;;19.63;71.31